»·PEaware :: SKY620 KPRC-KHII

SKY620 :: KPRC-KHII

FLIGHT INFORMATION

Flight Status: Arrived
Operator:
Sky High Charters
More flights by this operator :: More flights under this callsign
Pilot: Seb M. (28802)
Aircraft: CESSNA 206 STATIONAIR
(C206)
More flights by this aircraft type
Origin: KPRC Love
United States
Destination: KHII Lake Havasu City
United States
More flights between these airports :: More routes between these airports
Route: WNSKI2 MUMTE V12 EED
File this flight plan on PilotEdge
Remarks:
Altitude:
(Current/Filed)
10,000ft
Speed:
(Current/Filed)
150kts
Departed: 20-Aug-23 10:31 AM
Arrived: 20-Aug-23 11:33 AM
Distance/Time
Traveled:
96nm/1:02
Distance/Time
To Go:
Arrived

Flight Plot

Page will automatically refresh every two minutes.

Flight plan parsing failed; only flown route is shown


Map Options




Map Legend


Flown Route
Filed Route
Departure Airport
Arrival Airport
Navaid (VOR, NDB)
Fix

Horizontal Profiles

Position Reports

Time Latitude Longitude Heading Altitude Ground
Speed
20-Aug-23 10:13 34.653850 -112.422580 130 4992ft 0kts
20-Aug-23 10:14 34.653850 -112.422580 130 4992ft 0kts
20-Aug-23 10:15 34.653850 -112.422579 130 4992ft 0kts
20-Aug-23 10:16 34.653850 -112.422579 130 4992ft 0kts
20-Aug-23 10:17 34.653850 -112.422579 130 4992ft 0kts
20-Aug-23 10:18 34.653850 -112.422579 130 4992ft 0kts
20-Aug-23 10:19 34.653848 -112.422576 130 4992ft 0kts
20-Aug-23 10:20 34.653835 -112.422557 129 4992ft 0kts
20-Aug-23 10:21 34.653834 -112.422556 129 4992ft 0kts
20-Aug-23 10:22 34.653834 -112.422556 129 4992ft 0kts
20-Aug-23 10:23 34.653834 -112.422556 129 4992ft 0kts
20-Aug-23 10:24 34.653834 -112.422556 129 4992ft 0kts
20-Aug-23 10:24 34.653834 -112.422556 129 4992ft 0kts
20-Aug-23 10:26 34.653834 -112.422556 129 4992ft 0kts
20-Aug-23 10:27 34.652521 -112.423541 221 4999ft 9kts
20-Aug-23 10:28 34.650971 -112.424655 223 5007ft 10kts
20-Aug-23 10:28 34.650852 -112.424787 223 5007ft 0kts
20-Aug-23 10:29 34.650363 -112.425215 159 5009ft 7kts
20-Aug-23 10:30 34.648282 -112.422857 138 5018ft 64kts
20-Aug-23 10:32 34.636253 -112.394910 111 5923ft 86kts
20-Aug-23 10:33 34.624205 -112.369629 129 6765ft 91kts
20-Aug-23 10:33 34.611478 -112.349533 131 7610ft 92kts
20-Aug-23 10:34 34.595297 -112.325434 132 8555ft 95kts
20-Aug-23 10:35 34.578247 -112.300912 132 9432ft 97kts
20-Aug-23 10:37 34.555398 -112.269382 133 10009ft 133kts
20-Aug-23 10:37 34.528394 -112.250186 204 10004ft 160kts
20-Aug-23 10:38 34.500377 -112.294996 240 10000ft 172kts
20-Aug-23 10:39 34.479182 -112.347376 242 10000ft 174kts
20-Aug-23 10:40 34.461532 -112.401917 259 10001ft 176kts
20-Aug-23 10:41 34.455812 -112.461114 270 9999ft 178kts
20-Aug-23 10:42 34.462635 -112.520779 283 10000ft 180kts
20-Aug-23 10:43 34.475920 -112.579178 284 10000ft 180kts
20-Aug-23 10:44 34.488741 -112.635178 283 10001ft 172kts
20-Aug-23 10:45 34.501408 -112.690560 283 9999ft 169kts
20-Aug-23 10:46 34.526107 -112.738233 318 10000ft 171kts
20-Aug-23 10:47 34.566674 -112.768015 337 10000ft 171kts
20-Aug-23 10:48 34.611991 -112.784750 350 10000ft 171kts
20-Aug-23 10:49 34.659111 -112.791818 355 9999ft 170kts
20-Aug-23 10:50 34.706171 -112.798014 355 10000ft 171kts
20-Aug-23 10:51 34.724968 -112.841008 265 10000ft 166kts
20-Aug-23 10:52 34.723732 -112.897420 266 10000ft 167kts
20-Aug-23 10:53 34.723490 -112.954011 267 10000ft 167kts
20-Aug-23 10:54 34.723486 -113.010793 271 10000ft 168kts
20-Aug-23 10:55 34.729482 -113.067473 277 9993ft 170kts
20-Aug-23 10:56 34.739362 -113.124239 282 9971ft 171kts
20-Aug-23 10:57 34.753037 -113.179997 285 9948ft 172kts
20-Aug-23 10:58 34.752601 -113.237557 266 9928ft 170kts
20-Aug-23 10:59 34.750527 -113.295173 266 9909ft 170kts
20-Aug-23 11:00 34.748366 -113.352823 266 9908ft 170kts
20-Aug-23 11:01 34.748604 -113.409183 270 10179ft 156kts
20-Aug-23 11:02 34.749799 -113.464154 270 10202ft 166kts
20-Aug-23 11:03 34.750968 -113.520915 270 10202ft 169kts
20-Aug-23 11:04 34.752104 -113.578315 270 10162ft 171kts
20-Aug-23 11:05 34.753217 -113.636160 270 10156ft 170kts
20-Aug-23 11:06 34.754299 -113.693943 270 10163ft 170kts
20-Aug-23 11:07 34.755346 -113.751428 270 10164ft 170kts
20-Aug-23 11:08 34.756362 -113.809001 270 10139ft 171kts
20-Aug-23 11:09 34.757265 -113.866986 270 10103ft 171kts
20-Aug-23 11:10 34.758251 -113.924538 269 10068ft 167kts
20-Aug-23 11:11 34.759155 -113.980512 269 10036ft 165kts
20-Aug-23 11:12 34.760039 -114.036210 268 10015ft 164kts
20-Aug-23 11:13 34.761018 -114.093759 269 9644ft 177kts
20-Aug-23 11:14 34.762093 -114.154175 269 9147ft 179kts
20-Aug-23 11:15 34.762917 -114.214015 269 8646ft 176kts
20-Aug-23 11:16 34.763707 -114.273343 269 8147ft 175kts
20-Aug-23 11:17 34.764468 -114.332580 269 7645ft 174kts
20-Aug-23 11:18 34.765195 -114.391369 269 7142ft 173kts
20-Aug-23 11:19 34.765855 -114.447861 269 7001ft 160kts
20-Aug-23 11:20 34.782794 -114.488886 356 7015ft 155kts
20-Aug-23 11:21 34.826767 -114.493922 358 7009ft 161kts
20-Aug-23 11:22 34.869161 -114.490189 59 7011ft 153kts
20-Aug-23 11:23 34.842758 -114.467689 189 7008ft 154kts
20-Aug-23 11:24 34.800574 -114.471798 177 6999ft 133kts
20-Aug-23 11:25 34.769987 -114.470197 181 6687ft 110kts
20-Aug-23 11:26 34.735304 -114.468220 181 5705ft 135kts
20-Aug-23 11:27 34.697536 -114.458393 152 4709ft 147kts
20-Aug-23 11:28 34.663628 -114.431247 150 3738ft 131kts
20-Aug-23 11:29 34.638457 -114.411110 151 2746ft 100kts
20-Aug-23 11:30 34.614576 -114.391250 146 2046ft 115kts
20-Aug-23 11:31 34.591464 -114.372510 153 1156ft 94kts
20-Aug-23 11:32 34.574147 -114.360416 150 766ft 21kts
20-Aug-23 11:33 34.573692 -114.360937 231 761ft 0kts
20-Aug-23 11:34 34.573692 -114.360937 231 761ft 0kts
20-Aug-23 11:35 34.573692 -114.360937 231 761ft 0kts
20-Aug-23 11:36 34.573692 -114.360937 231 761ft 0kts
20-Aug-23 11:37 34.573692 -114.360937 231 761ft 0kts

Navigation Log

Ident Type
Flight plan parsing failed, navigation log unavailable